sensor_id;sensor_type;location;lat;lon;timestamp;pressure;altitude;pressure_sealevel;temperature;humidity
75312;BME280;63906;55.686;37.532;2022-12-18T00:03:56;98959.72;;;-2.54;79.72
75312;BME280;63906;55.686;37.532;2022-12-18T00:08:58;98944.00;;;-2.51;80.07
75312;BME280;63906;55.686;37.532;2022-12-18T00:13:59;98947.53;;;-2.31;79.12
75312;BME280;63906;55.686;37.532;2022-12-18T00:19:00;98941.53;;;-2.53;79.44
75312;BME280;63906;55.686;37.532;2022-12-18T00:24:01;98944.91;;;-2.20;78.83
75312;BME280;63906;55.686;37.532;2022-12-18T00:29:07;98928.94;;;-2.35;79.53
75312;BME280;63906;55.686;37.532;2022-12-18T00:34:11;98951.50;;;-2.06;78.39
75312;BME280;63906;55.686;37.532;2022-12-18T00:39:12;98937.47;;;-2.34;78.70
75312;BME280;63906;55.686;37.532;2022-12-18T00:44:14;98919.38;;;-2.02;78.59
75312;BME280;63906;55.686;37.532;2022-12-18T00:49:17;98903.94;;;-2.55;78.22
75312;BME280;63906;55.686;37.532;2022-12-18T00:54:18;98919.56;;;-2.36;78.51
75312;BME280;63906;55.686;37.532;2022-12-18T00:59:18;98896.47;;;-2.58;79.32
75312;BME280;63906;55.686;37.532;2022-12-18T01:04:19;98870.97;;;-2.61;79.55
75312;BME280;63906;55.686;37.532;2022-12-18T01:09:19;98851.09;;;-2.50;79.47
75312;BME280;63906;55.686;37.532;2022-12-18T01:14:20;98842.78;;;-2.42;77.73
75312;BME280;63906;55.686;37.532;2022-12-18T01:19:21;98847.41;;;-2.36;78.03
75312;BME280;63906;55.686;37.532;2022-12-18T01:24:21;98848.78;;;-2.74;78.37
75312;BME280;63906;55.686;37.532;2022-12-18T01:29:22;98867.75;;;-2.33;78.24
75312;BME280;63906;55.686;37.532;2022-12-18T01:34:23;98864.63;;;-2.57;78.45
75312;BME280;63906;55.686;37.532;2022-12-18T01:39:24;98881.72;;;-2.56;79.02
75312;BME280;63906;55.686;37.532;2022-12-18T01:55:29;98855.13;;;-2.57;78.52
75312;BME280;63906;55.686;37.532;2022-12-18T02:00:31;98859.78;;;-2.72;78.91
75312;BME280;63906;55.686;37.532;2022-12-18T02:05:49;98879.13;;;-2.56;79.36
75312;BME280;63906;55.686;37.532;2022-12-18T02:11:15;98877.16;;;-2.85;79.31
75312;BME280;63906;55.686;37.532;2022-12-18T02:27:23;98851.03;;;-2.80;79.78
75312;BME280;63906;55.686;37.532;2022-12-18T02:32:31;98850.59;;;-2.85;79.72
75312;BME280;63906;55.686;37.532;2022-12-18T02:37:34;98867.09;;;-2.88;79.47
75312;BME280;63906;55.686;37.532;2022-12-18T02:42:35;98884.28;;;-3.09;77.38
75312;BME280;63906;55.686;37.532;2022-12-18T02:47:38;98850.47;;;-2.84;78.47
75312;BME280;63906;55.686;37.532;2022-12-18T03:04:16;98851.69;;;-2.99;77.71
75312;BME280;63906;55.686;37.532;2022-12-18T03:09:24;98835.13;;;-3.17;77.43
75312;BME280;63906;55.686;37.532;2022-12-18T03:14:30;98862.00;;;-2.99;78.79
75312;BME280;63906;55.686;37.532;2022-12-18T03:19:33;98850.78;;;-2.98;78.91
75312;BME280;63906;55.686;37.532;2022-12-18T03:24:35;98881.56;;;-2.76;80.76
75312;BME280;63906;55.686;37.532;2022-12-18T03:29:47;98875.13;;;-3.02;77.99
75312;BME280;63906;55.686;37.532;2022-12-18T03:34:50;98855.34;;;-3.02;79.32
75312;BME280;63906;55.686;37.532;2022-12-18T03:39:54;98859.50;;;-2.89;79.49
75312;BME280;63906;55.686;37.532;2022-12-18T03:45:06;98873.97;;;-3.09;76.74
75312;BME280;63906;55.686;37.532;2022-12-18T03:50:13;98867.59;;;-2.94;79.84
75312;BME280;63906;55.686;37.532;2022-12-18T03:55:17;98883.31;;;-2.97;78.45
75312;BME280;63906;55.686;37.532;2022-12-18T04:00:19;98891.03;;;-2.97;79.17
75312;BME280;63906;55.686;37.532;2022-12-18T04:05:22;98864.06;;;-2.93;79.07
75312;BME280;63906;55.686;37.532;2022-12-18T04:10:24;98844.69;;;-3.29;78.08
75312;BME280;63906;55.686;37.532;2022-12-18T04:15:25;98905.09;;;-2.80;79.71
75312;BME280;63906;55.686;37.532;2022-12-18T04:20:25;98894.09;;;-3.03;79.69
75312;BME280;63906;55.686;37.532;2022-12-18T04:25:26;98906.66;;;-2.89;79.94
75312;BME280;63906;55.686;37.532;2022-12-18T04:30:26;98926.94;;;-2.95;79.59
75312;BME280;63906;55.686;37.532;2022-12-18T04:35:27;98944.78;;;-2.72;81.00
75312;BME280;63906;55.686;37.532;2022-12-18T04:40:27;98956.28;;;-2.87;80.93
75312;BME280;63906;55.686;37.532;2022-12-18T04:45:29;98936.22;;;-3.15;79.22
75312;BME280;63906;55.686;37.532;2022-12-18T04:50:30;98968.66;;;-2.81;81.87
75312;BME280;63906;55.686;37.532;2022-12-18T04:55:31;98943.09;;;-3.05;80.98
75312;BME280;63906;55.686;37.532;2022-12-18T05:00:31;98973.13;;;-2.83;80.52
75312;BME280;63906;55.686;37.532;2022-12-18T05:05:34;98933.53;;;-3.14;79.96
75312;BME280;63906;55.686;37.532;2022-12-18T05:10:35;98966.88;;;-3.23;79.85
75312;BME280;63906;55.686;37.532;2022-12-18T05:15:35;98940.25;;;-3.34;80.14
75312;BME280;63906;55.686;37.532;2022-12-18T05:20:36;98975.31;;;-3.10;79.46
75312;BME280;63906;55.686;37.532;2022-12-18T05:25:36;98983.47;;;-3.05;80.30
75312;BME280;63906;55.686;37.532;2022-12-18T05:30:37;98977.41;;;-3.15;79.85
75312;BME280;63906;55.686;37.532;2022-12-18T05:35:37;99012.94;;;-2.87;81.09
75312;BME280;63906;55.686;37.532;2022-12-18T05:40:41;99026.06;;;-3.01;79.54
75312;BME280;63906;55.686;37.532;2022-12-18T05:45:42;99038.13;;;-3.13;79.59
75312;BME280;63906;55.686;37.532;2022-12-18T05:50:45;99031.78;;;-3.42;78.07
75312;BME280;63906;55.686;37.532;2022-12-18T05:55:47;99044.53;;;-3.52;76.31
75312;BME280;63906;55.686;37.532;2022-12-18T06:00:47;99046.28;;;-3.53;75.72
75312;BME280;63906;55.686;37.532;2022-12-18T06:05:48;99030.59;;;-3.72;75.40
75312;BME280;63906;55.686;37.532;2022-12-18T06:10:51;99066.88;;;-3.30;79.36
75312;BME280;63906;55.686;37.532;2022-12-18T06:15:52;99067.59;;;-3.17;80.61
75312;BME280;63906;55.686;37.532;2022-12-18T06:20:57;99075.66;;;-3.33;79.23
75312;BME280;63906;55.686;37.532;2022-12-18T06:25:57;99093.56;;;-3.20;79.22
75312;BME280;63906;55.686;37.532;2022-12-18T06:30:58;99092.28;;;-3.14;79.82
75312;BME280;63906;55.686;37.532;2022-12-18T06:36:04;99101.50;;;-3.45;74.72
75312;BME280;63906;55.686;37.532;2022-12-18T06:41:07;99121.53;;;-3.27;78.39
75312;BME280;63906;55.686;37.532;2022-12-18T06:46:08;99140.75;;;-3.55;74.84
75312;BME280;63906;55.686;37.532;2022-12-18T06:51:08;99153.75;;;-3.45;75.22
75312;BME280;63906;55.686;37.532;2022-12-18T06:56:09;99156.19;;;-2.75;81.43
75312;BME280;63906;55.686;37.532;2022-12-18T07:01:11;99163.00;;;-2.74;82.02
75312;BME280;63906;55.686;37.532;2022-12-18T07:06:16;99177.00;;;-3.11;77.00
75312;BME280;63906;55.686;37.532;2022-12-18T07:11:18;99166.53;;;-3.32;71.57
75312;BME280;63906;55.686;37.532;2022-12-18T07:16:20;99188.03;;;-3.09;73.34
75312;BME280;63906;55.686;37.532;2022-12-18T07:21:22;99195.72;;;-3.20;72.36
75312;BME280;63906;55.686;37.532;2022-12-18T07:26:23;99190.22;;;-3.05;78.75
75312;BME280;63906;55.686;37.532;2022-12-18T07:31:25;99184.53;;;-2.75;81.62
75312;BME280;63906;55.686;37.532;2022-12-18T07:36:25;99218.53;;;-3.16;72.88
75312;BME280;63906;55.686;37.532;2022-12-18T07:41:26;99191.91;;;-3.39;71.28
75312;BME280;63906;55.686;37.532;2022-12-18T07:46:27;99210.97;;;-2.95;79.38
75312;BME280;63906;55.686;37.532;2022-12-18T07:51:27;99241.94;;;-3.08;78.05
75312;BME280;63906;55.686;37.532;2022-12-18T07:56:28;99221.56;;;-2.64;82.70
75312;BME280;63906;55.686;37.532;2022-12-18T08:01:28;99232.47;;;-3.07;73.57
75312;BME280;63906;55.686;37.532;2022-12-18T08:06:29;99226.88;;;-3.01;80.92
75312;BME280;63906;55.686;37.532;2022-12-18T08:11:29;99259.59;;;-2.68;81.99
75312;BME280;63906;55.686;37.532;2022-12-18T08:16:30;99218.81;;;-3.32;81.32
75312;BME280;63906;55.686;37.532;2022-12-18T08:21:31;99293.97;;;-2.91;80.26
75312;BME280;63906;55.686;37.532;2022-12-18T08:26:32;99278.19;;;-3.11;80.35
75312;BME280;63906;55.686;37.532;2022-12-18T08:31:32;99278.50;;;-3.27;74.88
75312;BME280;63906;55.686;37.532;2022-12-18T08:36:33;99247.84;;;-3.30;79.12
75312;BME280;63906;55.686;37.532;2022-12-18T08:41:34;99298.22;;;-3.14;76.77
75312;BME280;63906;55.686;37.532;2022-12-18T08:46:37;99312.25;;;-2.83;80.46
75312;BME280;63906;55.686;37.532;2022-12-18T08:51:38;99321.56;;;-2.58;81.28
75312;BME280;63906;55.686;37.532;2022-12-18T08:56:39;99310.81;;;-2.87;78.35
75312;BME280;63906;55.686;37.532;2022-12-18T09:01:40;99293.19;;;-3.05;76.37
75312;BME280;63906;55.686;37.532;2022-12-18T09:06:40;99299.94;;;-2.80;80.25
75312;BME280;63906;55.686;37.532;2022-12-18T09:11:41;99317.91;;;-3.02;73.43
75312;BME280;63906;55.686;37.532;2022-12-18T09:16:41;99300.28;;;-3.19;71.73
75312;BME280;63906;55.686;37.532;2022-12-18T09:21:42;99334.31;;;-2.92;79.89
75312;BME280;63906;55.686;37.532;2022-12-18T09:26:43;99350.94;;;-2.72;81.01
75312;BME280;63906;55.686;37.532;2022-12-18T09:31:44;99363.25;;;-2.64;81.27
75312;BME280;63906;55.686;37.532;2022-12-18T09:36:45;99369.72;;;-2.83;80.19
75312;BME280;63906;55.686;37.532;2022-12-18T09:41:54;99391.16;;;-2.82;75.44
75312;BME280;63906;55.686;37.532;2022-12-18T09:47:13;99389.09;;;-2.31;83.51
75312;BME280;63906;55.686;37.532;2022-12-18T09:52:42;99390.88;;;-2.55;81.43
75312;BME280;63906;55.686;37.532;2022-12-18T09:58:06;99372.41;;;-2.49;83.70
75312;BME280;63906;55.686;37.532;2022-12-18T10:03:12;99371.50;;;-2.37;82.70
75312;BME280;63906;55.686;37.532;2022-12-18T10:08:22;99366.97;;;-2.68;83.15
75312;BME280;63906;55.686;37.532;2022-12-18T10:24:33;99400.50;;;-2.57;82.07
75312;BME280;63906;55.686;37.532;2022-12-18T10:29:33;99385.78;;;-2.44;83.06
75312;BME280;63906;55.686;37.532;2022-12-18T10:34:33;99352.06;;;-2.76;83.11
75312;BME280;63906;55.686;37.532;2022-12-18T10:39:34;99380.03;;;-2.83;80.99
75312;BME280;63906;55.686;37.532;2022-12-18T10:44:34;99431.50;;;-2.35;82.84
75312;BME280;63906;55.686;37.532;2022-12-18T10:49:35;99423.78;;;-2.24;83.54
75312;BME280;63906;55.686;37.532;2022-12-18T10:54:36;99451.88;;;-1.97;84.18
75312;BME280;63906;55.686;37.532;2022-12-18T10:59:54;99464.56;;;-2.18;83.31
75312;BME280;63906;55.686;37.532;2022-12-18T11:04:55;99478.06;;;-1.79;84.79
75312;BME280;63906;55.686;37.532;2022-12-18T11:10:01;99488.06;;;-2.09;82.88
75312;BME280;63906;55.686;37.532;2022-12-18T11:15:02;99463.38;;;-2.25;83.51
75312;BME280;63906;55.686;37.532;2022-12-18T11:20:05;99482.94;;;-1.98;84.11
75312;BME280;63906;55.686;37.532;2022-12-18T11:35:37;99521.78;;;-2.12;83.98
75312;BME280;63906;55.686;37.532;2022-12-18T11:40:42;99498.88;;;-1.93;84.50
75312;BME280;63906;55.686;37.532;2022-12-18T11:46:14;99511.66;;;-2.27;83.40
75312;BME280;63906;55.686;37.532;2022-12-18T11:51:35;99510.22;;;-2.31;82.76
75312;BME280;63906;55.686;37.532;2022-12-18T11:56:47;99544.31;;;-2.14;84.20
75312;BME280;63906;55.686;37.532;2022-12-18T12:01:50;99557.44;;;-2.06;83.80
75312;BME280;63906;55.686;37.532;2022-12-18T12:23:11;99574.38;;;-2.63;82.92
75312;BME280;63906;55.686;37.532;2022-12-18T12:28:29;99607.28;;;-2.30;84.25
75312;BME280;63906;55.686;37.532;2022-12-18T12:39:22;99630.63;;;-2.57;82.75
75312;BME280;63906;55.686;37.532;2022-12-18T12:44:28;99610.56;;;-2.64;82.99
75312;BME280;63906;55.686;37.532;2022-12-18T12:49:32;99649.31;;;-2.66;82.74
75312;BME280;63906;55.686;37.532;2022-12-18T12:54:34;99659.41;;;-2.63;83.22
75312;BME280;63906;55.686;37.532;2022-12-18T13:00:13;99665.41;;;-2.26;83.71
75312;BME280;63906;55.686;37.532;2022-12-18T13:05:34;99647.63;;;-2.18;84.90
75312;BME280;63906;55.686;37.532;2022-12-18T13:10:40;99669.28;;;-2.07;84.25
75312;BME280;63906;55.686;37.532;2022-12-18T13:15:42;99698.50;;;-2.20;84.56
75312;BME280;63906;55.686;37.532;2022-12-18T13:31:08;99694.00;;;-2.41;83.39
75312;BME280;63906;55.686;37.532;2022-12-18T13:36:16;99730.25;;;-2.19;83.81
75312;BME280;63906;55.686;37.532;2022-12-18T13:46:29;99753.13;;;-2.02;84.51
75312;BME280;63906;55.686;37.532;2022-12-18T13:51:32;99761.81;;;-2.15;84.42
75312;BME280;63906;55.686;37.532;2022-12-18T13:56:34;99760.38;;;-2.20;83.69
75312;BME280;63906;55.686;37.532;2022-12-18T14:01:34;99767.72;;;-2.26;83.92
75312;BME280;63906;55.686;37.532;2022-12-18T14:06:35;99786.97;;;-2.19;84.32
75312;BME280;63906;55.686;37.532;2022-12-18T14:11:35;99810.69;;;-2.14;83.52
75312;BME280;63906;55.686;37.532;2022-12-18T14:16:37;99799.75;;;-2.18;84.14
75312;BME280;63906;55.686;37.532;2022-12-18T14:21:38;99828.56;;;-1.98;83.65
75312;BME280;63906;55.686;37.532;2022-12-18T14:26:38;99857.63;;;-1.96;84.31
75312;BME280;63906;55.686;37.532;2022-12-18T14:31:39;99844.53;;;-2.19;82.42
75312;BME280;63906;55.686;37.532;2022-12-18T14:36:39;99839.88;;;-2.13;83.42
75312;BME280;63906;55.686;37.532;2022-12-18T14:41:40;99849.78;;;-2.46;83.66
75312;BME280;63906;55.686;37.532;2022-12-18T14:46:45;99889.25;;;-2.45;83.39
75312;BME280;63906;55.686;37.532;2022-12-18T14:52:01;99897.03;;;-2.20;83.50
75312;BME280;63906;55.686;37.532;2022-12-18T14:57:35;99920.25;;;-1.94;84.04
75312;BME280;63906;55.686;37.532;2022-12-18T15:02:36;99928.19;;;-2.10;83.32
75312;BME280;63906;55.686;37.532;2022-12-18T15:07:45;99910.69;;;-2.45;81.71
75312;BME280;63906;55.686;37.532;2022-12-18T15:17:59;99933.41;;;-2.37;81.49
75312;BME280;63906;55.686;37.532;2022-12-18T15:23:03;99945.56;;;-2.39;83.51
75312;BME280;63906;55.686;37.532;2022-12-18T15:28:19;99955.97;;;-2.67;80.72
75312;BME280;63906;55.686;37.532;2022-12-18T15:33:25;99915.41;;;-2.64;81.01
75312;BME280;63906;55.686;37.532;2022-12-18T15:38:26;99947.75;;;-2.87;82.68
75312;BME280;63906;55.686;37.532;2022-12-18T15:43:27;99947.13;;;-2.63;82.90
75312;BME280;63906;55.686;37.532;2022-12-18T15:48:39;99955.19;;;-2.55;82.82
75312;BME280;63906;55.686;37.532;2022-12-18T15:53:40;99968.63;;;-2.50;82.47
75312;BME280;63906;55.686;37.532;2022-12-18T15:58:40;99987.16;;;-2.99;80.68
75312;BME280;63906;55.686;37.532;2022-12-18T16:03:41;100000.72;;;-2.68;82.49
75312;BME280;63906;55.686;37.532;2022-12-18T16:08:41;99976.84;;;-2.99;82.60
75312;BME280;63906;55.686;37.532;2022-12-18T16:13:42;99984.19;;;-2.93;81.25
75312;BME280;63906;55.686;37.532;2022-12-18T16:18:42;100010.94;;;-3.22;82.43
75312;BME280;63906;55.686;37.532;2022-12-18T16:23:43;100033.00;;;-3.04;80.31
75312;BME280;63906;55.686;37.532;2022-12-18T16:28:43;100035.06;;;-3.11;81.75
75312;BME280;63906;55.686;37.532;2022-12-18T16:33:44;100059.09;;;-3.25;81.73
75312;BME280;63906;55.686;37.532;2022-12-18T16:38:44;100045.59;;;-3.28;79.12
75312;BME280;63906;55.686;37.532;2022-12-18T16:43:45;100091.34;;;-3.33;80.29
75312;BME280;63906;55.686;37.532;2022-12-18T16:48:45;100084.97;;;-3.56;79.18
75312;BME280;63906;55.686;37.532;2022-12-18T16:53:46;100077.59;;;-3.62;80.49
75312;BME280;63906;55.686;37.532;2022-12-18T16:58:53;100102.28;;;-3.74;79.45
75312;BME280;63906;55.686;37.532;2022-12-18T17:03:57;100108.94;;;-3.86;80.76
75312;BME280;63906;55.686;37.532;2022-12-18T17:08:59;100129.53;;;-4.17;79.40
75312;BME280;63906;55.686;37.532;2022-12-18T17:14:06;100118.78;;;-4.24;79.70
75312;BME280;63906;55.686;37.532;2022-12-18T17:19:06;100115.41;;;-4.40;77.58
75312;BME280;63906;55.686;37.532;2022-12-18T17:24:07;100107.56;;;-4.54;79.19
75312;BME280;63906;55.686;37.532;2022-12-18T17:29:12;100127.16;;;-4.52;79.23
75312;BME280;63906;55.686;37.532;2022-12-18T17:34:13;100124.66;;;-4.69;78.03
75312;BME280;63906;55.686;37.532;2022-12-18T17:39:17;100175.69;;;-4.47;78.89
75312;BME280;63906;55.686;37.532;2022-12-18T17:44:18;100148.13;;;-5.10;77.62
75312;BME280;63906;55.686;37.532;2022-12-18T17:49:18;100187.84;;;-5.17;77.37
75312;BME280;63906;55.686;37.532;2022-12-18T17:54:19;100173.44;;;-5.37;78.27
75312;BME280;63906;55.686;37.532;2022-12-18T17:59:20;100180.06;;;-5.50;78.32
75312;BME280;63906;55.686;37.532;2022-12-18T18:04:21;100180.31;;;-5.37;79.28
75312;BME280;63906;55.686;37.532;2022-12-18T18:09:22;100190.28;;;-5.31;79.25
75312;BME280;63906;55.686;37.532;2022-12-18T18:14:22;100218.69;;;-5.36;77.23
75312;BME280;63906;55.686;37.532;2022-12-18T18:19:24;100215.47;;;-5.39;77.63
75312;BME280;63906;55.686;37.532;2022-12-18T18:24:24;100221.03;;;-5.49;76.17
75312;BME280;63906;55.686;37.532;2022-12-18T18:29:26;100246.31;;;-5.41;77.35
75312;BME280;63906;55.686;37.532;2022-12-18T18:34:29;100260.00;;;-5.59;77.38
75312;BME280;63906;55.686;37.532;2022-12-18T18:39:30;100265.31;;;-5.81;76.56
75312;BME280;63906;55.686;37.532;2022-12-18T18:44:31;100246.06;;;-5.90;78.55
75312;BME280;63906;55.686;37.532;2022-12-18T18:49:31;100261.41;;;-6.07;76.49
75312;BME280;63906;55.686;37.532;2022-12-18T18:54:32;100263.72;;;-6.21;77.01
75312;BME280;63906;55.686;37.532;2022-12-18T18:59:32;100290.88;;;-5.99;77.59
75312;BME280;63906;55.686;37.532;2022-12-18T19:04:33;100294.88;;;-6.31;77.10
75312;BME280;63906;55.686;37.532;2022-12-18T19:09:35;100323.56;;;-6.04;76.95
75312;BME280;63906;55.686;37.532;2022-12-18T19:14:36;100307.31;;;-6.62;76.61
75312;BME280;63906;55.686;37.532;2022-12-18T19:19:37;100351.59;;;-6.40;77.48
75312;BME280;63906;55.686;37.532;2022-12-18T19:24:38;100327.47;;;-6.55;76.68
75312;BME280;63906;55.686;37.532;2022-12-18T19:29:38;100346.78;;;-6.88;75.99
75312;BME280;63906;55.686;37.532;2022-12-18T19:34:39;100339.53;;;-7.21;76.39
75312;BME280;63906;55.686;37.532;2022-12-18T19:39:39;100377.09;;;-6.99;75.99
75312;BME280;63906;55.686;37.532;2022-12-18T19:44:40;100371.22;;;-7.01;76.34
75312;BME280;63906;55.686;37.532;2022-12-18T19:49:40;100393.00;;;-7.15;76.29
75312;BME280;63906;55.686;37.532;2022-12-18T19:54:41;100362.28;;;-7.59;75.56
75312;BME280;63906;55.686;37.532;2022-12-18T19:59:41;100358.66;;;-7.75;76.34
75312;BME280;63906;55.686;37.532;2022-12-18T20:04:42;100379.91;;;-7.51;77.36
75312;BME280;63906;55.686;37.532;2022-12-18T20:09:42;100398.75;;;-7.53;76.89
75312;BME280;63906;55.686;37.532;2022-12-18T20:14:43;100376.09;;;-7.41;77.67
75312;BME280;63906;55.686;37.532;2022-12-18T20:19:43;100408.97;;;-7.53;76.68
75312;BME280;63906;55.686;37.532;2022-12-18T20:24:44;100398.34;;;-7.90;75.91
75312;BME280;63906;55.686;37.532;2022-12-18T20:29:44;100428.63;;;-7.79;76.03
75312;BME280;63906;55.686;37.532;2022-12-18T20:34:45;100410.88;;;-8.07;75.68
75312;BME280;63906;55.686;37.532;2022-12-18T20:39:45;100438.66;;;-7.98;75.85
75312;BME280;63906;55.686;37.532;2022-12-18T20:44:46;100428.06;;;-7.87;77.17
75312;BME280;63906;55.686;37.532;2022-12-18T20:49:46;100436.63;;;-7.88;76.76
75312;BME280;63906;55.686;37.532;2022-12-18T20:54:47;100417.44;;;-8.00;77.46
75312;BME280;63906;55.686;37.532;2022-12-18T20:59:47;100450.38;;;-7.92;76.94
75312;BME280;63906;55.686;37.532;2022-12-18T21:04:48;100432.56;;;-8.19;75.71
75312;BME280;63906;55.686;37.532;2022-12-18T21:09:48;100417.00;;;-8.36;76.27
75312;BME280;63906;55.686;37.532;2022-12-18T21:14:49;100466.22;;;-8.07;76.96
75312;BME280;63906;55.686;37.532;2022-12-18T21:19:51;100444.09;;;-8.33;76.34
75312;BME280;63906;55.686;37.532;2022-12-18T21:24:51;100466.34;;;-8.35;75.85
75312;BME280;63906;55.686;37.532;2022-12-18T21:29:52;100467.28;;;-8.38;76.51
75312;BME280;63906;55.686;37.532;2022-12-18T21:34:52;100491.19;;;-8.41;77.49
75312;BME280;63906;55.686;37.532;2022-12-18T21:39:53;100475.50;;;-8.30;76.78
75312;BME280;63906;55.686;37.532;2022-12-18T21:44:54;100459.84;;;-8.46;76.60
75312;BME280;63906;55.686;37.532;2022-12-18T21:49:54;100451.75;;;-8.58;76.66
75312;BME280;63906;55.686;37.532;2022-12-18T21:54:55;100506.22;;;-8.59;75.79
75312;BME280;63906;55.686;37.532;2022-12-18T21:59:55;100516.09;;;-8.77;75.54
75312;BME280;63906;55.686;37.532;2022-12-18T22:04:56;100466.25;;;-8.87;76.30
75312;BME280;63906;55.686;37.532;2022-12-18T22:09:56;100499.84;;;-8.73;76.04
75312;BME280;63906;55.686;37.532;2022-12-18T22:14:57;100535.59;;;-8.46;77.37
75312;BME280;63906;55.686;37.532;2022-12-18T22:19:57;100490.00;;;-8.57;77.43
75312;BME280;63906;55.686;37.532;2022-12-18T22:24:58;100505.06;;;-8.49;76.24
75312;BME280;63906;55.686;37.532;2022-12-18T22:29:58;100509.25;;;-8.75;75.53
75312;BME280;63906;55.686;37.532;2022-12-18T22:35:05;100482.53;;;-8.91;76.65
75312;BME280;63906;55.686;37.532;2022-12-18T22:40:08;100506.06;;;-8.81;76.21
75312;BME280;63906;55.686;37.532;2022-12-18T22:45:09;100513.59;;;-8.78;76.44
75312;BME280;63906;55.686;37.532;2022-12-18T22:50:13;100545.91;;;-8.49;76.83
75312;BME280;63906;55.686;37.532;2022-12-18T22:55:14;100539.25;;;-8.28;77.37
75312;BME280;63906;55.686;37.532;2022-12-18T23:00:15;100531.38;;;-8.47;76.95
75312;BME280;63906;55.686;37.532;2022-12-18T23:05:15;100541.13;;;-8.33;77.88
75312;BME280;63906;55.686;37.532;2022-12-18T23:10:16;100522.88;;;-8.48;77.04
75312;BME280;63906;55.686;37.532;2022-12-18T23:15:17;100556.72;;;-8.41;76.51
75312;BME280;63906;55.686;37.532;2022-12-18T23:20:17;100534.44;;;-8.64;76.67
75312;BME280;63906;55.686;37.532;2022-12-18T23:25:18;100528.03;;;-8.49;77.07
75312;BME280;63906;55.686;37.532;2022-12-18T23:30:18;100569.47;;;-8.41;76.74
75312;BME280;63906;55.686;37.532;2022-12-18T23:35:19;100554.28;;;-8.46;77.51
75312;BME280;63906;55.686;37.532;2022-12-18T23:40:20;100574.28;;;-8.32;77.11
75312;BME280;63906;55.686;37.532;2022-12-18T23:45:21;100582.44;;;-8.21;77.56
75312;BME280;63906;55.686;37.532;2022-12-18T23:50:21;100589.69;;;-8.07;78.73
75312;BME280;63906;55.686;37.532;2022-12-18T23:55:22;100581.66;;;-8.49;76.31
